Time;durP1;ratioP1;P1;durP2;ratioP2;P2;SDS_P1;SDS_P2;PMS_P1;PMS_P2;Temp;Humidity;BMP_temperature;BMP_pressure;BME280_temperature;BME280_humidity;BME280_pressure;Samples;Min_cycle;Max_cycle;Signal;HPM_P1;HPM_P2
2023/01/20 00:04:57;;;;;;;103.43;53.43;;;-0.80;99.90;;;;;;10454537;28;20254;-90
2023/01/20 00:10:00;;;;;;;98.23;54.10;;;-0.90;99.90;;;;;;10450975;28;20292;-90
2023/01/20 00:15:04;;;;;;;88.30;51.10;;;-0.60;99.90;;;;;;10493881;28;20326;-89
2023/01/20 00:20:07;;;;;;;104.20;56.13;;;-0.80;99.90;;;;;;10472588;28;20233;-90
2023/01/20 00:25:10;;;;;;;100.30;54.57;;;-0.20;99.90;;;;;;10494921;28;20256;-89
2023/01/20 00:30:13;;;;;;;105.03;58.10;;;-0.60;99.90;;;;;;10476485;28;20284;-90
2023/01/20 00:35:16;;;;;;;95.27;51.23;;;-1.20;99.90;;;;;;10448048;28;20303;-90
2023/01/20 00:40:19;;;;;;;83.57;48.40;;;-1.00;99.90;;;;;;10452435;28;20238;-89
2023/01/20 00:45:21;;;;;;;78.27;45.27;;;-0.70;99.90;;;;;;10451943;28;20250;-89
2023/01/20 00:50:24;;;;;;;91.97;51.47;;;-1.10;99.90;;;;;;10466664;28;20229;-90
2023/01/20 00:55:26;;;;;;;86.13;48.30;;;-1.50;99.90;;;;;;10467326;28;20260;-89
2023/01/20 01:00:29;;;;;;;87.67;46.77;;;-1.80;99.90;;;;;;10451510;28;20230;-89
2023/01/20 01:05:33;;;;;;;81.43;46.17;;;-1.40;99.90;;;;;;10466730;28;20305;-90
2023/01/20 01:10:35;;;;;;;71.90;44.80;;;-1.20;99.90;;;;;;10451615;28;20968;-91
2023/01/20 01:15:38;;;;;;;76.03;43.73;;;-0.60;99.90;;;;;;10451204;28;20270;-90
2023/01/20 01:20:43;;;;;;;69.40;42.13;;;-0.70;99.90;;;;;;10448140;28;20703;-89
2023/01/20 01:25:46;;;;;;;61.37;38.13;;;-0.80;99.90;;;;;;10450492;28;20270;-91
2023/01/20 01:31:01;;;;;;;60.40;36.60;;;-0.80;99.90;;;;;;10450784;28;20242;-90
2023/01/20 01:36:04;;;;;;;70.23;41.07;;;-0.60;99.90;;;;;;10449103;28;20587;-90
2023/01/20 01:41:09;;;;;;;64.70;41.03;;;-0.80;99.90;;;;;;10448608;28;20214;-89
2023/01/20 01:46:11;;;;;;;69.67;38.03;;;-1.10;99.90;;;;;;10475624;28;20253;-90
2023/01/20 01:51:22;;;;;;;70.60;40.63;;;-0.50;99.90;;;;;;10468851;28;20685;-89
2023/01/20 01:56:26;;;;;;;63.27;38.70;;;-0.80;99.90;;;;;;10449568;28;20233;-89
2023/01/20 02:01:31;;;;;;;58.00;36.40;;;-1.20;99.90;;;;;;10430903;28;20277;-90
2023/01/20 02:06:39;;;;;;;67.30;38.17;;;-1.20;99.90;;;;;;10486037;28;20274;-88
2023/01/20 02:11:47;;;;;;;55.53;35.10;;;-0.90;99.90;;;;;;10490638;28;20233;-90
2023/01/20 02:17:26;;;;;;;57.17;34.93;;;-1.20;99.90;;;;;;10431378;28;20277;-91
2023/01/20 02:22:32;;;;;;;57.83;36.40;;;-1.30;99.90;;;;;;10380793;28;20242;-90
2023/01/20 02:27:40;;;;;;;59.97;36.07;;;-0.80;99.90;;;;;;10408215;28;20317;-90
2023/01/20 02:32:46;;;;;;;55.20;34.00;;;-1.00;99.90;;;;;;10411251;28;20235;-90
2023/01/20 02:38:13;;;;;;;56.57;36.20;;;-0.80;99.90;;;;;;10430837;28;20288;-90
2023/01/20 02:43:33;;;;;;;58.90;36.30;;;-0.70;99.90;;;;;;10415284;28;20785;-90
2023/01/20 02:48:41;;;;;;;57.10;36.33;;;-0.70;99.90;;;;;;10415554;28;20277;-89
2023/01/20 02:53:58;;;;;;;62.77;35.80;;;-0.60;99.90;;;;;;10430159;28;20246;-90
2023/01/20 02:59:07;;;;;;;66.00;35.80;;;-0.90;99.90;;;;;;10414838;28;20283;-89
2023/01/20 03:04:12;;;;;;;61.53;35.37;;;-0.80;99.90;;;;;;10413472;28;20717;-90
2023/01/20 03:09:20;;;;;;;58.73;36.90;;;-0.40;99.90;;;;;;10414938;28;20243;-90
2023/01/20 03:14:24;;;;;;;50.47;31.10;;;-0.10;99.90;;;;;;10423019;28;20316;-90
2023/01/20 03:19:26;;;;;;;53.07;33.57;;;0.10;99.90;;;;;;10455361;28;20202;-90
2023/01/20 03:24:32;;;;;;;56.83;35.87;;;0.60;99.90;;;;;;10455514;28;20336;-89
2023/01/20 03:29:34;;;;;;;64.43;38.57;;;0.90;99.90;;;;;;10455255;28;20231;-90
2023/01/20 03:34:40;;;;;;;59.93;36.30;;;0.70;99.90;;;;;;10453947;28;20237;-89
2023/01/20 03:39:43;;;;;;;62.43;36.20;;;-0.20;99.90;;;;;;10454873;28;20303;-90
2023/01/20 03:45:07;;;;;;;58.93;36.53;;;-0.30;99.90;;;;;;10436580;28;20269;-90
2023/01/20 03:50:34;;;;;;;58.63;36.57;;;-0.20;99.90;;;;;;10436583;28;20226;-89
2023/01/20 03:55:39;;;;;;;61.23;36.00;;;-0.40;99.90;;;;;;10453047;28;20683;-89
2023/01/20 04:00:44;;;;;;;63.53;35.93;;;-0.40;99.90;;;;;;10471207;28;20283;-90
2023/01/20 04:05:48;;;;;;;53.00;34.57;;;-0.60;99.90;;;;;;10461404;28;20777;-90
2023/01/20 04:10:54;;;;;;;57.43;34.97;;;0.00;99.90;;;;;;10435050;28;20257;-89
2023/01/20 04:15:58;;;;;;;64.00;36.67;;;-0.30;99.90;;;;;;10410952;28;20266;-90
2023/01/20 04:21:02;;;;;;;57.97;35.07;;;-0.50;99.90;;;;;;10394470;28;20231;-90
2023/01/20 04:26:05;;;;;;;52.67;32.93;;;-0.20;99.90;;;;;;10411565;28;20316;-89
2023/01/20 04:31:08;;;;;;;62.90;37.93;;;0.10;99.90;;;;;;10451806;28;20685;-90
2023/01/20 04:36:30;;;;;;;59.47;33.80;;;-0.20;99.90;;;;;;10435028;28;20686;-90
2023/01/20 04:41:32;;;;;;;52.10;33.13;;;-0.10;99.90;;;;;;10452361;28;20628;-90
2023/01/20 04:46:35;;;;;;;57.87;35.10;;;0.20;99.90;;;;;;10451590;28;20714;-90
2023/01/20 04:51:39;;;;;;;58.33;36.03;;;0.20;99.90;;;;;;10450883;28;20220;-90
2023/01/20 04:56:42;;;;;;;56.43;34.00;;;0.50;99.90;;;;;;10457311;28;20295;-90
2023/01/20 05:01:45;;;;;;;61.93;37.57;;;0.10;99.90;;;;;;10433258;28;20249;-90
2023/01/20 05:06:48;;;;;;;64.43;36.57;;;-0.20;99.90;;;;;;10450039;28;20253;-90
2023/01/20 05:11:50;;;;;;;61.47;37.87;;;-0.10;99.90;;;;;;10449608;28;20315;-90
2023/01/20 05:16:53;;;;;;;57.90;36.73;;;0.10;99.90;;;;;;10450733;28;20234;-91
2023/01/20 05:21:55;;;;;;;65.57;39.43;;;-0.10;99.90;;;;;;10450871;28;20275;-91
2023/01/20 05:27:01;;;;;;;67.90;40.17;;;-0.30;99.90;;;;;;10450413;28;20315;-91
2023/01/20 05:32:04;;;;;;;86.17;47.33;;;-0.50;99.90;;;;;;10448470;28;20288;-91
2023/01/20 05:37:06;;;;;;;91.03;51.23;;;-0.40;99.90;;;;;;10450513;28;20233;-90
2023/01/20 05:42:09;;;;;;;85.33;51.33;;;-0.30;99.90;;;;;;10431881;28;20268;-89
2023/01/20 05:47:11;;;;;;;86.80;50.90;;;0.00;99.90;;;;;;10448600;28;20844;-89
2023/01/20 05:52:14;;;;;;;96.97;55.63;;;0.00;99.90;;;;;;10450328;28;20225;-92
2023/01/20 05:57:17;;;;;;;97.77;56.93;;;0.20;99.90;;;;;;10432039;28;20226;-92
2023/01/20 06:02:19;;;;;;;144.03;90.90;;;0.00;99.90;;;;;;10448219;28;20650;-90
2023/01/20 06:07:22;;;;;;;170.17;96.40;;;-1.10;99.90;;;;;;10447309;28;20631;-88
2023/01/20 06:12:25;;;;;;;99.70;43.63;;;-2.00;99.90;;;;;;10449705;28;20287;-91
2023/01/20 06:17:27;;;;;;;169.47;83.63;;;0.10;99.90;;;;;;10447791;28;20652;-92
2023/01/20 06:22:30;;;;;;;153.33;83.00;;;1.60;99.90;;;;;;10448376;28;20284;-91
2023/01/20 06:27:33;;;;;;;144.50;73.43;;;1.10;99.90;;;;;;10466322;28;20669;-91
2023/01/20 06:32:35;;;;;;;122.07;66.13;;;0.90;99.90;;;;;;10447192;28;20245;-92
2023/01/20 06:37:38;;;;;;;110.37;61.63;;;0.60;99.90;;;;;;10448819;28;20231;-92
2023/01/20 06:42:41;;;;;;;110.47;63.47;;;0.50;99.90;;;;;;10431698;28;20281;-91
2023/01/20 06:47:48;;;;;;;111.93;62.47;;;0.70;99.90;;;;;;10422255;28;20256;-91
2023/01/20 06:52:52;;;;;;;133.00;71.87;;;0.70;99.90;;;;;;10456821;28;20782;-87
2023/01/20 06:57:55;;;;;;;143.00;74.93;;;1.20;99.90;;;;;;10448745;28;20227;-89
2023/01/20 07:02:57;;;;;;;147.43;73.47;;;4.10;99.90;;;;;;10447862;28;20674;-89
2023/01/20 07:08:00;;;;;;;146.77;78.50;;;3.20;99.90;;;;;;10445834;28;20704;-89
2023/01/20 07:13:03;;;;;;;132.63;70.03;;;2.20;99.90;;;;;;10445571;28;20684;-88
2023/01/20 07:18:05;;;;;;;101.30;55.73;;;1.60;99.90;;;;;;10448407;28;20346;-89
2023/01/20 07:23:08;;;;;;;85.33;50.43;;;1.30;99.90;;;;;;10435467;28;20686;-89
2023/01/20 07:28:10;;;;;;;108.77;54.70;;;1.20;99.90;;;;;;10453005;28;20713;-88
2023/01/20 07:33:13;;;;;;;95.37;53.77;;;1.20;99.90;;;;;;10456280;28;20233;-86
2023/01/20 07:38:15;;;;;;;96.20;50.60;;;2.20;99.90;;;;;;10472993;28;20239;-85
2023/01/20 07:43:18;;;;;;;104.20;58.10;;;4.80;99.90;;;;;;10453209;28;20252;-85
2023/01/20 07:48:21;;;;;;;108.90;61.87;;;4.40;99.90;;;;;;10452830;28;20245;-85
2023/01/20 07:53:23;;;;;;;108.70;62.40;;;3.10;99.90;;;;;;10464254;28;20284;-86
2023/01/20 07:58:27;;;;;;;121.03;62.23;;;2.70;99.90;;;;;;10428889;28;20634;-86
2023/01/20 08:03:29;;;;;;;117.67;64.50;;;2.90;99.90;;;;;;10445025;28;20245;-86
2023/01/20 08:08:33;;;;;;;95.63;54.20;;;2.60;99.90;;;;;;10452028;28;20763;-86
2023/01/20 08:13:35;;;;;;;138.67;70.87;;;2.80;99.90;;;;;;10450261;28;20291;-86
2023/01/20 08:18:39;;;;;;;140.00;72.50;;;2.80;99.90;;;;;;10450657;28;20241;-86
2023/01/20 08:23:41;;;;;;;142.47;76.13;;;3.10;99.90;;;;;;10434340;28;20667;-86
2023/01/20 08:28:44;;;;;;;116.30;65.20;;;3.20;99.90;;;;;;10442775;28;20250;-87
2023/01/20 08:33:47;;;;;;;94.20;50.33;;;3.30;99.90;;;;;;10449439;28;20727;-86
2023/01/20 08:38:50;;;;;;;71.10;40.90;;;3.20;99.90;;;;;;10448884;28;20284;-86
2023/01/20 08:43:53;;;;;;;73.70;44.07;;;2.80;99.90;;;;;;10453048;28;20265;-86
2023/01/20 08:48:55;;;;;;;74.87;44.60;;;2.80;99.90;;;;;;10414542;28;20672;-87
2023/01/20 08:53:58;;;;;;;87.30;50.80;;;3.20;99.90;;;;;;10424821;28;20234;-86
2023/01/20 08:59:02;;;;;;;81.67;49.93;;;3.20;99.90;;;;;;10450701;28;20759;-87
2023/01/20 09:04:05;;;;;;;87.27;50.93;;;3.20;99.90;;;;;;10491233;28;20233;-87
2023/01/20 09:09:09;;;;;;;88.97;53.77;;;3.50;99.90;;;;;;10490717;28;20622;-86
2023/01/20 09:14:12;;;;;;;90.43;54.90;;;3.30;99.90;;;;;;10469111;28;20262;-85
2023/01/20 09:19:15;;;;;;;85.33;50.37;;;4.10;99.90;;;;;;10448277;28;20245;-85
2023/01/20 09:24:18;;;;;;;71.73;46.23;;;3.70;99.90;;;;;;10467983;28;20287;-85
2023/01/20 09:29:20;;;;;;;73.47;43.40;;;3.70;99.90;;;;;;10430444;28;20320;-85
2023/01/20 09:34:25;;;;;;;79.47;47.03;;;3.80;99.90;;;;;;10443764;28;20269;-85
2023/01/20 09:44:56;;;;;;;86.50;52.57;;;3.20;99.90;;;;;;10432580;28;20264;-86
2023/01/20 09:55:39;;;;;;;82.10;49.93;;;3.20;99.90;;;;;;10450136;28;20230;-86
2023/01/20 10:00:47;;;;;;;95.77;54.37;;;3.40;99.90;;;;;;10450294;28;20261;-85
2023/01/20 10:05:54;;;;;;;94.37;55.20;;;3.50;99.90;;;;;;10448681;28;20615;-85
2023/01/20 10:11:10;;;;;;;88.07;49.83;;;4.20;99.90;;;;;;10447120;28;20646;-85
2023/01/20 10:16:34;;;;;;;76.93;49.00;;;3.70;99.90;;;;;;10447835;28;20258;-85
2023/01/20 10:21:44;;;;;;;58.40;37.93;;;3.90;99.90;;;;;;10448365;28;20252;-85
2023/01/20 10:27:13;;;;;;;87.17;49.57;;;4.70;99.90;;;;;;10430327;28;20249;-85
2023/01/20 10:32:29;;;;;;;42.27;24.57;;;4.60;99.90;;;;;;10457878;28;20207;-88
2023/01/20 10:37:34;;;;;;;74.40;41.67;;;6.40;99.90;;;;;;10452966;28;20563;-88
2023/01/20 10:42:37;;;;;;;105.40;58.93;;;7.30;99.90;;;;;;10453686;28;20195;-88
2023/01/20 10:48:07;;;;;;;104.27;56.80;;;5.60;99.90;;;;;;10454329;28;20647;-87
2023/01/20 10:53:32;;;;;;;87.63;52.67;;;5.00;99.90;;;;;;10464283;28;20242;-83
2023/01/20 10:58:39;;;;;;;82.53;47.57;;;5.00;99.90;;;;;;10459993;28;20245;-83
2023/01/20 11:03:44;;;;;;;81.37;45.13;;;4.80;99.90;;;;;;10481954;28;20237;-83
2023/01/20 11:08:48;;;;;;;72.47;44.07;;;4.40;99.90;;;;;;10478041;28;20693;-83
2023/01/20 11:13:51;;;;;;;64.57;41.80;;;4.00;99.90;;;;;;10456194;28;20219;-82
2023/01/20 11:19:04;;;;;;;67.33;37.30;;;3.90;99.90;;;;;;10462442;28;20617;-88
2023/01/20 11:24:31;;;;;;;62.00;40.23;;;6.70;99.90;;;;;;10485072;28;20566;-89
2023/01/20 11:29:40;;;;;;;61.53;40.40;;;6.40;99.90;;;;;;10503302;28;20295;-89
2023/01/20 11:34:48;;;;;;;57.40;38.90;;;4.90;99.90;;;;;;10501375;28;20193;-89
2023/01/20 11:39:54;;;;;;;62.57;39.20;;;4.40;99.90;;;;;;10500858;28;20209;-90
2023/01/20 11:45:03;;;;;;;68.97;39.93;;;3.80;99.90;;;;;;10501337;28;20198;-89
2023/01/20 11:50:34;;;;;;;60.90;39.43;;;4.00;99.90;;;;;;10484612;28;20206;-89
2023/01/20 11:55:52;;;;;;;58.07;37.20;;;4.00;99.90;;;;;;10501924;28;20210;-89
2023/01/20 12:01:01;;;;;;;59.13;39.60;;;3.80;99.90;;;;;;10502470;28;20232;-90
2023/01/20 12:06:31;;;;;;;58.30;35.60;;;4.00;99.90;;;;;;10480735;28;20590;-89
2023/01/20 12:11:40;;;;;;;66.93;40.00;;;6.30;99.90;;;;;;10474414;28;20256;-89
2023/01/20 12:16:45;;;;;;;63.13;41.80;;;5.80;99.90;;;;;;10461230;28;20734;-89
2023/01/20 12:21:51;;;;;;;56.13;38.10;;;5.40;99.90;;;;;;10462202;28;20268;-89
2023/01/20 12:26:54;;;;;;;57.70;37.07;;;5.40;99.90;;;;;;10460030;28;20284;-90
2023/01/20 12:31:56;;;;;;;65.07;42.27;;;5.10;99.90;;;;;;10462689;28;20230;-88
2023/01/20 12:37:17;;;;;;;72.27;44.43;;;5.10;99.90;;;;;;10464902;28;20206;-89
2023/01/20 12:42:20;;;;;;;59.73;38.30;;;4.70;99.90;;;;;;10491810;28;20200;-90
2023/01/20 12:47:47;;;;;;;62.50;39.10;;;4.40;99.90;;;;;;10505267;28;20607;-88
2023/01/20 12:53:14;;;;;;;62.13;38.63;;;4.70;99.90;;;;;;10506528;28;20208;-87
2023/01/20 12:58:57;;;;;;;67.93;41.00;;;4.50;99.90;;;;;;10467134;28;20186;-88
2023/01/20 13:04:10;;;;;;;62.57;40.67;;;4.10;99.90;;;;;;10529362;28;20210;-87
2023/01/20 13:09:53;;;;;;;93.60;51.67;;;3.80;99.90;;;;;;10521999;28;20211;-87
2023/01/20 13:15:20;;;;;;;55.67;36.23;;;4.40;99.90;;;;;;10528561;28;20214;-88
2023/01/20 13:20:27;;;;;;;56.30;35.73;;;4.40;99.90;;;;;;10546839;28;20187;-88
2023/01/20 13:25:30;;;;;;;59.73;39.30;;;4.30;99.90;;;;;;10545108;28;20189;-86
2023/01/20 13:30:36;;;;;;;53.83;35.60;;;4.00;99.90;;;;;;10475543;28;20206;-88
2023/01/20 13:35:47;;;;;;;54.10;36.40;;;3.70;99.90;;;;;;10504948;28;20240;-87
2023/01/20 13:40:55;;;;;;;62.33;38.57;;;3.60;99.90;;;;;;10503418;28;20217;-90
2023/01/20 13:46:04;;;;;;;57.43;36.37;;;3.90;99.90;;;;;;10477540;28;20201;-91
2023/01/20 13:51:25;;;;;;;57.70;37.00;;;4.10;99.90;;;;;;10504088;28;21352;-90
2023/01/20 13:56:31;;;;;;;61.17;37.83;;;4.10;99.90;;;;;;10501273;28;20186;-90
2023/01/20 14:01:36;;;;;;;66.97;41.67;;;4.00;99.90;;;;;;10502112;28;20178;-90
2023/01/20 14:06:45;;;;;;;66.97;39.93;;;4.00;99.90;;;;;;10500133;28;20212;-89
2023/01/20 14:11:50;;;;;;;64.70;41.23;;;3.90;99.90;;;;;;10473015;28;20183;-90
2023/01/20 14:16:55;;;;;;;73.80;46.93;;;3.80;99.90;;;;;;10488862;28;20244;-90
2023/01/20 14:22:03;;;;;;;77.33;47.70;;;3.80;99.90;;;;;;10515075;28;20232;-90
2023/01/20 14:27:43;;;;;;;70.40;45.20;;;3.80;99.90;;;;;;10524349;28;20213;-91
2023/01/20 14:32:45;;;;;;;86.23;52.23;;;4.30;99.90;;;;;;10496750;28;20210;-90
2023/01/20 14:37:50;;;;;;;83.43;48.93;;;4.30;99.90;;;;;;10497030;28;20187;-91
2023/01/20 14:43:05;;;;;;;76.53;45.00;;;4.50;99.90;;;;;;10511812;28;20218;-89
2023/01/20 14:48:09;;;;;;;72.80;45.23;;;4.10;99.90;;;;;;10511827;28;20239;-86
2023/01/20 14:53:14;;;;;;;88.13;51.40;;;5.20;99.90;;;;;;10514150;28;20183;-88
2023/01/20 14:58:17;;;;;;;89.13;51.03;;;4.70;99.90;;;;;;10549633;28;20181;-88
2023/01/20 15:03:28;;;;;;;90.30;53.80;;;4.50;99.90;;;;;;10552740;28;20180;-89
2023/01/20 15:08:33;;;;;;;80.33;46.60;;;3.50;99.90;;;;;;10524414;28;20242;-89
2023/01/20 15:13:38;;;;;;;81.60;47.27;;;2.90;99.90;;;;;;10555806;28;20221;-86
2023/01/20 15:18:40;;;;;;;83.03;48.40;;;2.80;99.90;;;;;;10538242;28;20201;-88
2023/01/20 15:23:44;;;;;;;82.70;47.33;;;2.50;99.90;;;;;;10538916;28;20178;-89
2023/01/20 15:28:47;;;;;;;80.27;49.27;;;2.60;99.90;;;;;;10512423;28;20261;-88
2023/01/20 15:33:50;;;;;;;57.73;33.60;;;3.00;99.90;;;;;;10512523;28;20198;-88
2023/01/20 15:38:53;;;;;;;76.03;43.13;;;2.90;99.90;;;;;;10512557;28;20185;-89
2023/01/20 15:43:56;;;;;;;74.87;44.80;;;4.10;99.90;;;;;;10512124;28;20187;-89
2023/01/20 15:48:58;;;;;;;80.57;45.87;;;3.30;99.90;;;;;;10511511;28;20207;-89
2023/01/20 15:54:01;;;;;;;78.13;45.60;;;3.50;99.90;;;;;;10512826;28;20171;-88
2023/01/20 15:59:15;;;;;;;76.73;43.73;;;5.80;99.90;;;;;;10505455;28;20175;-89
2023/01/20 16:04:17;;;;;;;75.03;43.00;;;5.40;99.90;;;;;;10504645;28;20226;-91
2023/01/20 16:09:24;;;;;;;73.90;40.77;;;4.40;99.90;;;;;;10510097;28;20241;-91
2023/01/20 16:14:27;;;;;;;85.20;47.07;;;3.50;99.90;;;;;;10511517;28;20215;-92
2023/01/20 16:19:29;;;;;;;69.03;38.47;;;2.90;99.90;;;;;;10510367;28;20205;-91
2023/01/20 16:24:32;;;;;;;84.33;49.70;;;2.80;99.90;;;;;;10519479;28;20200;-91
2023/01/20 16:29:35;;;;;;;74.17;40.03;;;2.30;99.90;;;;;;10477786;28;20211;-91
2023/01/20 16:34:37;;;;;;;66.27;36.13;;;2.00;99.90;;;;;;10509310;28;20214;-90
2023/01/20 16:39:40;;;;;;;58.33;32.80;;;1.80;99.90;;;;;;10493284;28;20180;-90
2023/01/20 16:44:43;;;;;;;69.77;38.30;;;1.50;99.90;;;;;;10510522;28;20179;-91
2023/01/20 16:49:45;;;;;;;65.90;36.03;;;0.90;99.90;;;;;;10492493;28;20210;-91
2023/01/20 16:54:48;;;;;;;69.73;37.33;;;0.90;99.90;;;;;;10509250;28;20179;-91
2023/01/20 16:59:50;;;;;;;71.20;36.23;;;1.60;99.90;;;;;;10506726;28;20293;-90
2023/01/20 17:04:53;;;;;;;69.67;38.57;;;1.20;99.90;;;;;;10511468;28;20175;-90
2023/01/20 17:09:56;;;;;;;64.43;34.17;;;0.80;99.90;;;;;;10507113;28;20214;-91
2023/01/20 17:14:59;;;;;;;69.57;39.60;;;0.70;99.90;;;;;;10509749;28;20211;-91
2023/01/20 17:20:01;;;;;;;54.07;30.07;;;0.50;99.90;;;;;;10494100;28;20172;-91
2023/01/20 17:25:06;;;;;;;58.40;34.50;;;0.90;99.90;;;;;;10508940;28;20206;-91
2023/01/20 17:30:09;;;;;;;55.73;32.43;;;1.20;99.90;;;;;;10492388;28;20218;-91
2023/01/20 17:35:12;;;;;;;58.13;32.97;;;1.50;99.90;;;;;;10491452;28;20183;-93
2023/01/20 17:40:15;;;;;;;58.30;30.53;;;3.10;99.90;;;;;;10490620;28;20183;-91
2023/01/20 17:45:18;;;;;;;71.03;41.57;;;2.50;99.90;;;;;;10474075;28;20261;-92
2023/01/20 17:50:21;;;;;;;57.60;32.37;;;2.10;99.90;;;;;;10437969;28;20300;-92
2023/01/20 17:55:24;;;;;;;56.67;31.77;;;0.90;99.90;;;;;;10467066;28;20203;-92
2023/01/20 18:00:27;;;;;;;46.20;26.90;;;0.50;99.90;;;;;;10471424;28;20216;-93
2023/01/20 18:05:30;;;;;;;43.73;26.80;;;0.60;99.90;;;;;;10466781;28;20225;-93
2023/01/20 18:10:32;;;;;;;44.27;25.17;;;0.90;99.90;;;;;;10469611;28;20241;-93
2023/01/20 18:15:38;;;;;;;51.27;29.50;;;0.80;99.90;;;;;;10461137;28;20222;-91
2023/01/20 18:20:44;;;;;;;51.17;29.87;;;0.60;99.90;;;;;;10452582;28;20252;-92
2023/01/20 18:25:52;;;;;;;50.03;27.47;;;0.60;99.90;;;;;;10458528;28;20262;-91
2023/01/20 18:31:06;;;;;;;52.10;30.87;;;0.80;99.90;;;;;;10463138;28;20273;-93
2023/01/20 18:36:12;;;;;;;55.10;30.77;;;0.70;99.90;;;;;;10453953;28;20195;-93
2023/01/20 18:41:16;;;;;;;56.77;32.57;;;1.00;99.90;;;;;;10461514;28;20199;-91
2023/01/20 18:46:19;;;;;;;52.43;30.67;;;0.90;99.90;;;;;;10461950;28;20194;-92
2023/01/20 18:51:25;;;;;;;39.03;24.97;;;0.60;99.90;;;;;;10460667;28;20226;-93
2023/01/20 18:56:28;;;;;;;36.80;22.43;;;0.80;99.90;;;;;;10466155;28;20195;-92
2023/01/20 19:01:34;;;;;;;45.20;27.33;;;1.10;99.90;;;;;;10463741;28;20765;-91
2023/01/20 19:06:40;;;;;;;45.13;26.70;;;2.10;99.90;;;;;;10476777;28;20199;-91
2023/01/20 19:11:43;;;;;;;38.43;23.97;;;2.00;99.90;;;;;;10462054;28;20199;-91
2023/01/20 19:16:47;;;;;;;33.40;19.03;;;1.50;99.90;;;;;;10467891;28;20276;-92
2023/01/20 19:21:53;;;;;;;45.00;26.53;;;2.70;99.90;;;;;;10442375;28;20216;-92
2023/01/20 19:26:59;;;;;;;45.40;27.13;;;3.00;99.90;;;;;;10428380;28;20266;-90
2023/01/20 19:32:02;;;;;;;44.57;27.53;;;1.80;99.90;;;;;;10438697;28;20207;-88
2023/01/20 19:37:05;;;;;;;38.73;24.67;;;1.10;99.90;;;;;;10467292;28;20203;-89
2023/01/20 19:42:08;;;;;;;34.83;21.23;;;1.10;99.90;;;;;;10468656;28;20195;-88
2023/01/20 19:47:11;;;;;;;36.30;21.10;;;0.60;99.90;;;;;;10468326;28;20277;-89
2023/01/20 19:52:15;;;;;;;36.03;22.73;;;0.30;99.90;;;;;;10468290;28;20199;-88
2023/01/20 19:57:18;;;;;;;34.27;18.03;;;;;;;;;;10466653;28;20253;-88
2023/01/20 20:02:21;;;;;;;33.87;20.93;;;-0.40;99.90;;;;;;10449272;28;20211;-89
2023/01/20 20:07:24;;;;;;;28.57;16.90;;;-0.50;99.90;;;;;;10466934;28;20215;-87
2023/01/20 20:12:27;;;;;;;35.33;22.03;;;-0.30;99.90;;;;;;10448260;28;20194;-87
2023/01/20 20:17:30;;;;;;;31.00;19.47;;;-0.20;99.90;;;;;;10467703;28;20277;-89
2023/01/20 20:22:34;;;;;;;36.70;25.10;;;-0.30;99.90;;;;;;10465769;28;20198;-89
2023/01/20 20:27:37;;;;;;;43.33;29.10;;;-0.50;99.90;;;;;;10466799;28;20289;-88
2023/01/20 20:32:40;;;;;;;47.03;25.40;;;-0.90;99.90;;;;;;10465425;28;20195;-89
2023/01/20 20:37:43;;;;;;;34.93;21.00;;;-1.00;99.90;;;;;;10447551;28;20208;-90
2023/01/20 20:42:47;;;;;;;34.20;19.50;;;-0.80;99.90;;;;;;10465899;28;20210;-90
2023/01/20 20:47:50;;;;;;;33.90;21.67;;;-0.60;99.90;;;;;;10463970;28;20219;-90
2023/01/20 20:52:56;;;;;;;31.37;19.60;;;-0.30;99.90;;;;;;10454461;28;20256;-90
2023/01/20 20:58:00;;;;;;;33.87;20.80;;;;;;;;;;10453005;28;20234;-89
2023/01/20 21:03:06;;;;;;;32.47;21.53;;;0.20;99.90;;;;;;10454972;28;20219;-90
2023/01/20 21:08:09;;;;;;;32.10;18.10;;;0.20;99.90;;;;;;10457243;28;20234;-89
2023/01/20 21:13:12;;;;;;;31.27;19.47;;;0.60;99.90;;;;;;10453611;28;20231;-89
2023/01/20 21:18:15;;;;;;;29.50;18.13;;;0.40;99.90;;;;;;10435830;28;20258;-89
2023/01/20 21:23:19;;;;;;;39.07;22.10;;;-0.30;99.90;;;;;;10455790;28;20300;-88
2023/01/20 21:28:25;;;;;;;38.27;22.07;;;-0.40;99.90;;;;;;10462164;28;20322;-88
2023/01/20 21:33:28;;;;;;;26.37;17.03;;;0.30;99.90;;;;;;10453499;28;20672;-88
2023/01/20 21:38:36;;;;;;;32.93;20.00;;;1.20;99.90;;;;;;10463371;28;20288;-89
2023/01/20 21:54:39;;;;;;;41.63;23.80;;;2.00;99.90;;;;;;10361210;28;20224;-88
2023/01/20 21:59:44;;;;;;;37.00;22.23;;;0.50;99.90;;;;;;10345404;28;20236;-90
2023/01/20 22:04:47;;;;;;;32.70;20.07;;;-0.20;99.90;;;;;;10351016;28;20252;-89
2023/01/20 22:09:50;;;;;;;40.20;22.10;;;-0.10;99.90;;;;;;10403093;28;20263;-89
2023/01/20 22:14:53;;;;;;;30.30;18.40;;;-0.50;99.90;;;;;;9698129;28;10000604;-89
2023/01/20 22:19:55;;;;;;;37.77;23.33;;;-0.30;99.90;;;;;;10348186;28;20310;-90
2023/01/20 22:24:58;;;;;;;37.53;21.33;;;-0.50;99.90;;;;;;10360364;28;20271;-90
2023/01/20 22:30:01;;;;;;;42.17;21.77;;;-0.60;99.90;;;;;;10416501;28;20328;-89
2023/01/20 22:35:03;;;;;;;38.70;22.43;;;-0.60;99.90;;;;;;10445646;28;20288;-89
2023/01/20 22:40:06;;;;;;;37.37;20.30;;;-0.50;99.90;;;;;;10444701;28;20292;-90
2023/01/20 22:45:09;;;;;;;32.67;20.07;;;-0.50;99.90;;;;;;10456021;28;20230;-89
2023/01/20 22:50:12;;;;;;;38.67;23.20;;;-0.10;99.90;;;;;;10461593;28;20311;-90
2023/01/20 22:55:15;;;;;;;39.17;21.73;;;0.10;99.90;;;;;;10452538;28;20222;-89
2023/01/20 23:00:18;;;;;;;28.77;17.03;;;0.30;99.90;;;;;;10443504;28;20281;-87
2023/01/20 23:05:20;;;;;;;32.10;20.80;;;-0.20;99.90;;;;;;10428316;28;20602;-87
2023/01/20 23:15:44;;;;;;;27.40;15.20;;;-0.20;99.90;;;;;;10452624;28;20339;-87
2023/01/20 23:20:48;;;;;;;39.73;22.23;;;0.10;99.90;;;;;;10453029;28;20300;-87
2023/01/20 23:26:00;;;;;;;38.23;20.90;;;0.80;99.90;;;;;;10452295;28;20238;-87
2023/01/20 23:31:05;;;;;;;35.93;21.03;;;0.00;99.90;;;;;;10452343;28;20307;-87
2023/01/20 23:36:17;;;;;;;38.27;20.83;;;-0.40;99.90;;;;;;10452019;28;20238;-87
2023/01/20 23:41:19;;;;;;;28.70;15.83;;;-0.10;99.90;;;;;;10452942;28;20268;-87
2023/01/20 23:46:22;;;;;;;29.23;14.30;;;-0.30;99.90;;;;;;10451226;28;20246;-87
2023/01/20 23:51:25;;;;;;;34.67;19.23;;;-0.20;99.90;;;;;;10463815;28;20331;-86
2023/01/20 23:56:27;;;;;;;33.30;19.13;;;-0.40;99.90;;;;;;10457082;28;20678;-87
